createdAt,value
2022-08-22T00:02:06.188Z,101678.28
2022-08-22T00:02:41.978Z,101648.53
2022-08-22T00:02:55.493Z,101698.38
2022-08-22T00:04:41.405Z,101679.53
2022-08-22T00:07:20.114Z,101676.28
2022-08-22T00:10:09.305Z,101679.16
2022-08-22T00:12:49.824Z,101678.34
2022-08-22T00:15:43.668Z,101676.28
2022-08-22T00:18:18.725Z,101673.88
2022-08-22T00:20:56.712Z,101678.94
2022-08-22T00:23:27.703Z,101673.06
2022-08-22T00:25:58.811Z,101676.91
2022-08-22T00:28:36.145Z,101673.94
2022-08-22T00:31:08.984Z,101674.94
2022-08-22T00:33:48.261Z,101673.34
2022-08-22T00:36:18.836Z,101676.78
2022-08-22T00:38:52.918Z,101669.88
2022-08-22T00:41:41.566Z,101670.47
2022-08-22T00:44:18.471Z,101669.06
2022-08-22T00:47:06.641Z,101667.22
2022-08-22T00:49:45.060Z,101668.25
2022-08-22T00:52:17.427Z,101666.44
2022-08-22T00:55:09.446Z,101672.50
2022-08-22T00:57:44.960Z,101676.56
2022-08-22T01:00:19.561Z,101678.97
2022-08-22T01:03:01.256Z,101683.25
2022-08-22T01:05:46.325Z,101673.47
2022-08-22T01:08:39.178Z,101683.25
2022-08-22T01:11:31.202Z,101680.38
2022-08-22T01:14:34.548Z,101690.94
2022-08-22T01:17:37.753Z,101688.91
2022-08-22T01:20:20.690Z,101693.94
2022-08-22T01:23:08.975Z,101691.91
2022-08-22T01:26:13.076Z,101690.88
2022-08-22T01:29:07.955Z,101690.88
2022-08-22T01:31:42.691Z,101696.16
2022-08-22T01:34:46.670Z,101692.72
2022-08-22T01:37:41.763Z,101689.50
2022-08-22T01:40:22.330Z,101695.00
2022-08-22T01:42:52.948Z,101691.75
2022-08-22T01:45:43.957Z,101697.03
2022-08-22T01:48:41.377Z,101702.31
2022-08-22T01:51:24.778Z,101697.03
2022-08-22T01:54:09.345Z,101689.72
2022-08-22T01:56:42.141Z,101693.59
2022-08-22T01:59:12.899Z,101691.56
2022-08-22T02:02:14.061Z,101691.00
2022-08-22T02:04:53.781Z,101689.38
2022-08-22T02:07:32.069Z,101693.03
2022-08-22T02:10:09.985Z,101686.16
2022-08-22T02:12:57.797Z,101684.53
2022-08-22T02:15:39.426Z,101693.03
2022-08-22T02:18:05.963Z,101691.44
2022-08-22T02:20:57.487Z,101696.72
2022-08-22T02:23:47.810Z,101686.38
2022-08-22T02:26:21.015Z,101691.84
2022-08-22T02:28:58.224Z,101686.19
2022-08-22T02:31:35.922Z,101684.00
2022-08-22T02:34:20.286Z,101672.03
2022-08-22T02:37:09.327Z,101682.59
2022-08-22T02:39:45.803Z,101674.09
2022-08-22T02:42:24.535Z,101672.03
2022-08-22T02:45:29.965Z,101671.00
2022-08-22T02:48:20.000Z,101668.34
2022-08-22T02:51:13.977Z,101677.47
2022-08-22T02:54:14.253Z,101674.03
2022-08-22T02:56:53.214Z,101671.97
2022-08-22T02:59:32.268Z,101673.81
2022-08-22T03:02:26.276Z,101674.81
2022-08-22T03:04:56.789Z,101668.34
2022-08-22T03:07:34.288Z,101669.75
2022-08-22T03:10:13.584Z,101670.78
2022-08-22T03:13:08.002Z,101671.59
2022-08-22T03:15:49.255Z,101671.59
2022-08-22T03:18:42.334Z,101670.78
2022-08-22T03:21:18.411Z,101670.00
2022-08-22T03:24:14.436Z,101660.22
2022-08-22T03:27:10.246Z,101664.91
2022-08-22T03:30:00.448Z,101659.06
2022-08-22T03:33:12.822Z,101660.06
2022-08-22T03:35:57.292Z,101650.53
2022-08-22T03:38:32.741Z,101649.75
2022-08-22T03:41:30.156Z,101650.75
2022-08-22T03:44:37.708Z,101641.44
2022-08-22T03:47:33.900Z,101648.09
2022-08-22T03:50:23.588Z,101645.25
2022-08-22T03:53:20.602Z,101641.38
2022-08-22T03:56:10.233Z,101639.31
2022-08-22T03:58:45.606Z,101642.34
2022-08-22T04:01:49.610Z,101639.84
2022-08-22T04:04:34.461Z,101640.03
2022-08-22T04:07:31.594Z,101645.91
2022-08-22T04:10:29.498Z,101649.50
2022-08-22T04:13:10.753Z,101642.97
2022-08-22T04:16:32.798Z,101645.41
2022-08-22T04:19:39.256Z,101654.13
2022-08-22T04:22:43.016Z,101651.06
2022-08-22T04:25:19.869Z,101653.25
2022-08-22T04:27:55.086Z,101653.84
2022-08-22T04:30:24.565Z,101654.22
2022-08-22T04:33:04.072Z,101662.94
2022-08-22T04:36:01.284Z,101663.53
2022-08-22T04:38:40.240Z,101657.91
2022-08-22T04:41:14.864Z,101663.53
2022-08-22T04:43:50.809Z,101660.09
2022-08-22T04:46:43.351Z,101666.78
2022-08-22T04:49:21.316Z,101663.31
2022-08-22T04:51:57.276Z,101672.06
2022-08-22T04:54:41.887Z,101671.84
2022-08-22T04:57:21.198Z,101677.50
2022-08-22T04:59:49.698Z,101677.88
2022-08-22T05:02:26.599Z,101681.91
2022-08-22T05:05:01.940Z,101679.28
2022-08-22T05:07:35.997Z,101671.56
2022-08-22T05:10:12.066Z,101678.91
2022-08-22T05:12:45.873Z,101684.19
2022-08-22T05:15:23.157Z,101683.00
2022-08-22T05:17:53.385Z,101675.88
2022-08-22T05:20:23.551Z,101680.16
2022-08-22T05:22:55.529Z,101695.94
2022-08-22T05:25:28.685Z,101697.09
2022-08-22T05:28:06.092Z,101692.56
2022-08-22T05:30:34.561Z,101694.56
2022-08-22T05:33:26.572Z,101694.16
2022-08-22T05:35:58.873Z,101694.16
2022-08-22T05:38:32.244Z,101693.75
2022-08-22T05:41:08.489Z,101689.47
2022-08-22T05:43:39.188Z,101690.53
2022-08-22T05:46:09.677Z,101694.75
2022-08-22T05:48:45.604Z,101697.59
2022-08-22T05:51:19.255Z,101696.13
2022-08-22T05:53:51.025Z,101697.31
2022-08-22T05:56:43.036Z,101696.06
2022-08-22T05:59:32.505Z,101702.16
2022-08-22T06:02:05.288Z,101698.47
2022-08-22T06:04:37.460Z,101703.94
2022-08-22T06:07:30.861Z,101709.94
2022-08-22T06:10:14.612Z,101713.53
2022-08-22T06:12:44.243Z,101708.63
2022-08-22T06:15:21.219Z,101703.25
2022-08-22T06:17:50.915Z,101708.91
2022-08-22T06:20:23.122Z,101709.50
2022-08-22T06:22:57.019Z,101716.53
2022-08-22T06:25:32.033Z,101730.03
2022-08-22T06:28:03.749Z,101721.22
2022-08-22T06:30:31.086Z,101723.78
2022-08-22T06:33:02.952Z,101713.53
2022-08-22T06:35:41.663Z,101721.78
2022-08-22T06:38:09.136Z,101720.88
2022-08-22T06:40:35.708Z,101723.19
2022-08-22T06:43:03.081Z,101729.38
2022-08-22T06:45:32.859Z,101732.84
2022-08-22T06:48:05.351Z,101730.44
2022-08-22T06:50:42.517Z,101733.34
2022-08-22T06:53:21.009Z,101735.78
2022-08-22T06:55:53.759Z,101741.31
2022-08-22T06:58:31.015Z,101743.19
2022-08-22T07:01:11.718Z,101747.28
2022-08-22T07:03:44.862Z,101733.84
2022-08-22T07:06:17.058Z,101734.13
2022-08-22T07:08:43.886Z,101730.72
2022-08-22T07:11:25.961Z,101735.44
2022-08-22T07:14:01.928Z,101735.59
2022-08-22T07:16:33.613Z,101734.50
2022-08-22T07:19:00.478Z,101734.16
2022-08-22T07:21:30.215Z,101737.16
2022-08-22T07:24:00.369Z,101740.63
2022-08-22T07:26:52.780Z,101740.38
2022-08-22T07:29:27.952Z,101735.34
2022-08-22T07:32:09.746Z,101735.69
2022-08-22T07:34:57.779Z,101739.09
2022-08-22T07:37:37.101Z,101740.47
2022-08-22T07:40:09.699Z,101749.13
2022-08-22T07:42:56.364Z,101746.78
2022-08-22T07:45:34.982Z,101732.38
2022-08-22T07:48:10.796Z,101733.78
2022-08-22T07:51:02.126Z,101736.25
2022-08-22T07:53:41.443Z,101734.91
2022-08-22T07:56:38.114Z,101737.25
2022-08-22T07:59:12.958Z,101736.16
2022-08-22T08:01:45.808Z,101742.03
2022-08-22T08:04:17.616Z,101733.91
2022-08-22T08:06:52.106Z,101729.75
2022-08-22T08:09:19.741Z,101727.41
2022-08-22T08:11:49.118Z,101727.56
2022-08-22T08:14:16.427Z,101724.53
2022-08-22T08:16:56.173Z,101717.41
2022-08-22T08:19:23.543Z,101716.13
2022-08-22T08:21:54.040Z,101711.16
2022-08-22T08:24:26.439Z,101706.34
2022-08-22T08:26:57.991Z,101697.22
2022-08-22T08:29:24.629Z,101701.19
2022-08-22T08:31:51.265Z,101698.09
2022-08-22T08:34:24.026Z,101695.25
2022-08-22T08:37:02.126Z,101703.38
2022-08-22T08:39:37.688Z,101697.28
2022-08-22T08:42:32.246Z,101695.69
2022-08-22T08:45:07.657Z,101686.41
2022-08-22T08:48:05.885Z,101686.50
2022-08-22T08:50:50.820Z,101689.88
2022-08-22T08:53:43.299Z,101671.03
2022-08-22T08:56:28.755Z,101679.63
2022-08-22T08:59:44.050Z,101675.38
2022-08-22T09:02:34.975Z,101675.84
2022-08-22T09:05:15.996Z,101669.13
2022-08-22T09:08:00.787Z,101665.50
2022-08-22T09:11:09.702Z,101665.81
2022-08-22T09:14:05.905Z,101670.94
2022-08-22T09:16:51.576Z,101670.59
2022-08-22T09:19:46.352Z,101670.13
2022-08-22T09:22:33.462Z,101671.88
2022-08-22T09:25:38.608Z,101663.41
2022-08-22T09:28:12.560Z,101664.50
2022-08-22T09:34:35.145Z,101670.03
2022-08-22T09:37:20.389Z,101671.63
2022-08-22T09:39:51.777Z,101677.47
2022-08-22T09:42:24.456Z,101671.50
2022-08-22T09:45:22.312Z,101673.75
2022-08-22T09:48:10.713Z,101668.66
2022-08-22T09:51:28.750Z,101671.00
2022-08-22T09:54:07.746Z,101666.97
2022-08-22T09:56:42.440Z,101666.28
2022-08-22T09:59:17.069Z,101663.25
2022-08-22T10:01:55.869Z,101663.78
2022-08-22T10:04:42.420Z,101663.78
2022-08-22T10:07:30.976Z,101656.88
2022-08-22T10:10:22.767Z,101657.53
2022-08-22T10:13:21.200Z,101645.16
2022-08-22T10:16:01.255Z,101659.13
2022-08-22T10:18:52.555Z,101648.34
2022-08-22T10:22:14.535Z,101641.97
2022-08-22T10:24:47.905Z,101648.75
2022-08-22T10:27:19.562Z,101641.47
2022-08-22T10:30:11.436Z,101630.47
2022-08-22T10:33:01.057Z,101637.81
2022-08-22T10:35:34.469Z,101635.78
2022-08-22T10:38:12.416Z,101631.03
2022-08-22T10:40:43.507Z,101633.56
2022-08-22T10:43:29.476Z,101632.56
2022-08-22T10:46:06.798Z,101616.06
2022-08-22T10:48:55.608Z,101618.63
2022-08-22T10:51:36.772Z,101628.63
2022-08-22T10:54:19.952Z,101624.19
2022-08-22T10:56:49.769Z,101623.97
2022-08-22T10:59:44.409Z,101624.59
2022-08-22T11:02:31.914Z,101621.75
2022-08-22T11:05:20.013Z,101615.13
2022-08-22T11:08:08.268Z,101618.38
2022-08-22T11:11:06.086Z,101607.25
2022-08-22T11:13:32.369Z,101595.19
2022-08-22T11:16:04.652Z,101600.72
2022-08-22T11:18:44.327Z,101602.69
2022-08-22T11:22:03.754Z,101591.25
2022-08-22T11:24:55.369Z,101597.63
2022-08-22T11:27:59.615Z,101589.19
2022-08-22T11:30:51.325Z,101590.28
2022-08-22T11:33:32.516Z,101585.50
2022-08-22T11:36:27.840Z,101585.44
2022-08-22T11:39:20.973Z,101585.53
2022-08-22T11:42:11.367Z,101589.50
2022-08-22T11:44:50.839Z,101585.69
2022-08-22T11:47:20.467Z,101584.75
2022-08-22T11:50:13.489Z,101596.22
2022-08-22T11:53:09.079Z,101583.31
2022-08-22T11:55:43.345Z,101575.97
2022-08-22T11:58:18.891Z,101576.88
2022-08-22T12:00:53.289Z,101571.03
2022-08-22T12:03:42.897Z,101575.97
2022-08-22T12:06:24.617Z,101560.66
2022-08-22T12:09:24.160Z,101569.66
2022-08-22T12:11:56.600Z,101571.94
2022-08-22T12:14:49.265Z,101579.72
2022-08-22T12:17:55.267Z,101576.78
2022-08-22T12:20:53.276Z,101566.88
2022-08-22T12:23:48.824Z,101565.63
2022-08-22T12:26:55.038Z,101568.06
2022-08-22T12:29:44.994Z,101560.75
2022-08-22T12:32:43.917Z,101561.97
2022-08-22T12:35:36.647Z,101555.09
2022-08-22T12:38:29.179Z,101551.44
2022-08-22T12:41:13.106Z,101551.28
2022-08-22T12:43:51.690Z,101551.13
2022-08-22T12:46:48.220Z,101545.63
2022-08-22T12:49:21.465Z,101556.44
2022-08-22T12:52:08.848Z,101546.13
2022-08-22T12:54:47.560Z,101548.75
2022-08-22T12:57:24.693Z,101543.81
2022-08-22T13:00:01.934Z,101542.56
2022-08-22T13:02:33.301Z,101541.38
2022-08-22T13:05:11.476Z,101549.38
2022-08-22T13:07:52.330Z,101545.75
2022-08-22T13:10:40.354Z,101550.94
2022-08-22T13:13:12.047Z,101535.66
2022-08-22T13:15:42.469Z,101539.19
2022-08-22T13:18:29.611Z,101540.16
2022-08-22T13:21:00.841Z,101537.94
2022-08-22T13:23:34.265Z,101533.09
2022-08-22T13:26:09.018Z,101532.66
2022-08-22T13:28:56.851Z,101536.78
2022-08-22T13:31:38.957Z,101519.75
2022-08-22T13:34:10.852Z,101520.72
2022-08-22T13:36:51.595Z,101526.13
2022-08-22T13:39:24.617Z,101516.94
2022-08-22T13:41:53.192Z,101511.97
2022-08-22T13:44:24.597Z,101511.69
2022-08-22T13:47:12.644Z,101507.88
2022-08-22T13:49:42.409Z,101512.09
2022-08-22T13:52:29.322Z,101503.38
2022-08-22T13:55:17.998Z,101503.94
2022-08-22T13:58:02.718Z,101500.09
2022-08-22T14:00:58.075Z,101509.28
2022-08-22T14:03:49.206Z,101500.94
2022-08-22T14:06:35.343Z,101499.13
2022-08-22T14:09:32.027Z,101502.22
2022-08-22T14:12:25.089Z,101503.13
2022-08-22T14:14:57.756Z,101504.50
2022-08-22T14:17:33.177Z,101498.47
2022-08-22T14:20:08.185Z,101503.78
2022-08-22T14:22:39.773Z,101497.63
2022-08-22T14:25:26.752Z,101495.59
2022-08-22T14:28:01.035Z,101506.25
2022-08-22T14:30:38.828Z,101495.94
2022-08-22T14:33:13.666Z,101494.03
2022-08-22T14:35:52.748Z,101488.31
2022-08-22T14:38:31.734Z,101490.22
2022-08-22T14:41:25.002Z,101491.63
2022-08-22T14:44:08.110Z,101479.88
2022-08-22T14:46:44.592Z,101481.94
2022-08-22T14:49:26.249Z,101475.47
2022-08-22T14:52:09.630Z,101477.22
2022-08-22T14:54:37.843Z,101477.97
2022-08-22T14:57:12.684Z,101479.09
2022-08-22T14:59:50.057Z,101482.88
2022-08-22T15:02:27.888Z,101470.75
2022-08-22T15:04:55.513Z,101464.38
2022-08-22T15:07:34.968Z,101469.59
2022-08-22T15:10:22.310Z,101472.47
2022-08-22T15:12:52.619Z,101467.16
2022-08-22T15:15:30.981Z,101464.59
2022-08-22T15:17:58.873Z,101462.19
2022-08-22T15:20:35.246Z,101450.06
2022-08-22T15:23:09.782Z,101458.78
2022-08-22T15:25:40.978Z,101459.22
2022-08-22T15:28:20.419Z,101456.47
2022-08-22T15:30:59.397Z,101450.66
2022-08-22T15:33:36.049Z,101451.53
2022-08-22T15:36:11.046Z,101451.06
2022-08-22T15:38:47.990Z,101447.06
2022-08-22T15:41:36.312Z,101446.63
2022-08-22T15:44:31.072Z,101448.69
2022-08-22T15:47:04.585Z,101446.91
2022-08-22T15:49:36.685Z,101439.66
2022-08-22T15:52:03.884Z,101448.88
2022-08-22T15:54:51.105Z,101438.59
2022-08-22T15:57:24.956Z,101440.81
2022-08-22T16:00:00.203Z,101436.84
2022-08-22T16:02:38.835Z,101444.34
2022-08-22T16:05:11.401Z,101438.69
2022-08-22T16:07:48.566Z,101429.00
2022-08-22T16:10:23.992Z,101438.97
2022-08-22T16:13:33.976Z,101441.63
2022-08-22T16:16:26.655Z,101435.13
2022-08-22T16:18:52.949Z,101434.16
2022-08-22T16:21:22.039Z,101431.16
2022-08-22T16:23:51.523Z,101431.47
2022-08-22T16:26:24.484Z,101424.50
2022-08-22T16:29:11.569Z,101431.47
2022-08-22T16:31:48.220Z,101430.78
2022-08-22T16:34:17.732Z,101427.97
2022-08-22T16:36:53.340Z,101421.38
2022-08-22T16:39:22.654Z,101417.63
2022-08-22T16:41:51.828Z,101421.00
2022-08-22T16:44:30.242Z,101424.38
2022-08-22T16:47:35.143Z,101412.34
2022-08-22T16:50:08.115Z,101415.22
2022-08-22T16:52:37.488Z,101416.03
2022-08-22T16:55:26.084Z,101410.06
2022-08-22T16:58:32.360Z,101412.63
2022-08-22T17:01:36.664Z,101407.09
2022-08-22T17:04:15.324Z,101406.47
2022-08-22T17:07:20.649Z,101403.78
2022-08-22T17:10:13.796Z,101401.22
2022-08-22T17:13:17.224Z,101404.56
2022-08-22T17:15:58.176Z,101404.97
2022-08-22T17:18:55.138Z,101398.09
2022-08-22T17:21:38.115Z,101402.22
2022-08-22T17:24:38.714Z,101403.19
2022-08-22T17:27:17.812Z,101397.44
2022-08-22T17:29:46.909Z,101397.50
2022-08-22T17:32:40.364Z,101401.88
2022-08-22T17:35:32.788Z,101401.97
2022-08-22T17:37:59.349Z,101406.69
2022-08-22T17:41:02.104Z,101407.13
2022-08-22T17:43:48.988Z,101401.91
2022-08-22T17:46:27.291Z,101417.00
2022-08-22T17:49:02.191Z,101408.00
2022-08-22T17:51:39.270Z,101415.31
2022-08-22T17:54:14.613Z,101415.19
2022-08-22T17:57:05.346Z,101413.13
2022-08-22T17:59:39.560Z,101420.50
2022-08-22T18:02:15.516Z,101418.75
2022-08-22T18:04:50.352Z,101425.34
2022-08-22T18:07:28.574Z,101432.66
2022-08-22T18:10:15.157Z,101426.38
2022-08-22T18:12:54.006Z,101427.03
2022-08-22T18:15:29.597Z,101430.44
2022-08-22T18:18:06.607Z,101431.94
2022-08-22T18:21:15.411Z,101431.00
2022-08-22T18:23:51.968Z,101434.03
2022-08-22T18:26:24.161Z,101429.81
2022-08-22T18:28:57.693Z,101437.13
2022-08-22T18:31:49.185Z,101437.72
2022-08-22T18:34:23.172Z,101430.81
2022-08-22T18:36:57.304Z,101438.31
2022-08-22T18:39:31.564Z,101434.31
2022-08-22T18:42:08.969Z,101433.78
2022-08-22T18:44:38.412Z,101444.25
2022-08-22T18:47:35.163Z,101446.94
2022-08-22T18:50:27.698Z,101447.75
2022-08-22T18:52:57.442Z,101444.56
2022-08-22T18:55:54.826Z,101447.28
2022-08-22T18:58:43.887Z,101449.97
2022-08-22T19:01:50.894Z,101456.91
2022-08-22T19:04:45.896Z,101450.78
2022-08-22T19:07:31.461Z,101455.63
2022-08-22T19:10:10.103Z,101456.72
2022-08-22T19:13:16.931Z,101450.31
2022-08-22T19:15:55.338Z,101462.06
2022-08-22T19:18:27.930Z,101464.47
2022-08-22T19:21:24.677Z,101467.09
2022-08-22T19:23:53.316Z,101466.31
2022-08-22T19:26:37.014Z,101472.72
2022-08-22T19:29:05.761Z,101473.78
2022-08-22T19:31:37.247Z,101470.59
2022-08-22T19:34:32.876Z,101471.91
2022-08-22T19:37:11.330Z,101477.22
2022-08-22T19:40:00.736Z,101473.69
2022-08-22T19:42:27.220Z,101465.41
2022-08-22T19:44:53.544Z,101479.00
2022-08-22T19:47:19.837Z,101471.75
2022-08-22T19:50:05.449Z,101473.59
2022-08-22T19:52:37.946Z,101479.69
2022-08-22T19:55:36.943Z,101477.53
2022-08-22T19:58:12.172Z,101479.34
2022-08-22T20:00:53.952Z,101478.78
2022-08-22T20:04:17.814Z,101484.09
2022-08-22T20:07:00.451Z,101471.72
2022-08-22T20:09:41.881Z,101475.66
2022-08-22T20:12:21.170Z,101474.28
2022-08-22T20:14:48.343Z,101474.75
2022-08-22T20:17:23.744Z,101473.91
2022-08-22T20:20:18.327Z,101463.22
2022-08-22T20:22:58.954Z,101461.81
2022-08-22T20:25:48.348Z,101474.78
2022-08-22T20:28:35.979Z,101468.06
2022-08-22T20:31:07.254Z,101465.88
2022-08-22T20:33:38.175Z,101463.38
2022-08-22T20:36:18.530Z,101468.09
2022-08-22T20:38:58.663Z,101473.03
2022-08-22T20:41:38.722Z,101466.56
2022-08-22T20:44:16.469Z,101467.81
2022-08-22T20:46:58.047Z,101460.28
2022-08-22T20:49:31.233Z,101458.88
2022-08-22T20:52:01.584Z,101455.59
2022-08-22T20:54:34.440Z,101460.84
2022-08-22T20:57:17.077Z,101455.47
2022-08-22T20:59:52.919Z,101460.19
2022-08-22T21:02:39.381Z,101456.91
2022-08-22T21:05:11.509Z,101461.06
2022-08-22T21:07:45.229Z,101464.06
2022-08-22T21:10:26.816Z,101460.31
2022-08-22T21:13:30.441Z,101457.34
2022-08-22T21:16:00.447Z,101454.31
2022-08-22T21:18:32.757Z,101456.91
2022-08-22T21:21:17.270Z,101463.66
2022-08-22T21:23:48.021Z,101469.06
2022-08-22T21:26:20.023Z,101476.13
2022-08-22T21:28:49.360Z,101464.31
2022-08-22T21:31:21.911Z,101461.56
2022-08-22T21:33:50.661Z,101467.06
2022-08-22T21:36:20.306Z,101458.78
2022-08-22T21:38:53.649Z,101460.28
2022-08-22T21:41:34.034Z,101455.94
2022-08-22T21:44:19.193Z,101458.50
2022-08-22T21:46:45.641Z,101457.84
2022-08-22T21:49:24.865Z,101455.09
2022-08-22T21:51:52.056Z,101457.66
2022-08-22T21:54:38.143Z,101458.63
2022-08-22T21:57:10.642Z,101451.63
2022-08-22T21:59:52.110Z,101449.91
2022-08-22T22:02:36.657Z,101453.25
2022-08-22T22:05:13.292Z,101452.69
2022-08-22T22:07:41.590Z,101453.97
2022-08-22T22:10:10.960Z,101457.09
2022-08-22T22:12:42.697Z,101449.84
2022-08-22T22:15:14.099Z,101455.66
2022-08-22T22:17:40.499Z,101455.31
2022-08-22T22:20:07.669Z,101452.31
2022-08-22T22:22:34.076Z,101452.19
2022-08-22T22:25:04.444Z,101458.78
2022-08-22T22:27:31.655Z,101455.22
2022-08-22T22:29:58.157Z,101459.38
2022-08-22T22:32:24.585Z,101453.41
2022-08-22T22:34:50.957Z,101456.44
2022-08-22T22:37:17.731Z,101454.94
2022-08-22T22:39:44.318Z,101446.50
2022-08-22T22:42:10.744Z,101457.22
2022-08-22T22:44:37.154Z,101456.31
2022-08-22T22:47:03.730Z,101452.97
2022-08-22T22:49:31.960Z,101456.06
2022-08-22T22:52:00.127Z,101451.47
2022-08-22T22:54:27.211Z,101458.84
2022-08-22T22:56:54.118Z,101453.91
2022-08-22T22:59:24.630Z,101457.00
2022-08-22T23:02:11.126Z,101459.53
2022-08-22T23:04:40.128Z,101456.75
2022-08-22T23:07:07.962Z,101458.03
2022-08-22T23:09:38.748Z,101461.34
2022-08-22T23:12:12.405Z,101456.38
2022-08-22T23:14:39.150Z,101465.22
2022-08-22T23:17:05.689Z,101461.41
2022-08-22T23:19:32.884Z,101463.69
2022-08-22T23:22:00.989Z,101457.25
2022-08-22T23:24:29.065Z,101456.94
2022-08-22T23:26:55.609Z,101450.47
2022-08-22T23:29:22.045Z,101450.47
2022-08-22T23:31:57.567Z,101456.22
2022-08-22T23:34:28.665Z,101456.09
2022-08-22T23:36:57.171Z,101452.22
2022-08-22T23:39:25.332Z,101459.00
2022-08-22T23:41:52.407Z,101456.03
2022-08-22T23:44:22.977Z,101459.31
2022-08-22T23:46:50.028Z,101454.13
2022-08-22T23:49:16.645Z,101459.84
2022-08-22T23:51:44.404Z,101455.25
2022-08-22T23:54:11.592Z,101455.91
2022-08-22T23:56:41.132Z,101459.56
2022-08-22T23:59:11.249Z,101460.63
